Time;durP1;ratioP1;P1;durP2;ratioP2;P2;SDS_P1;SDS_P2;PMS_P1;PMS_P2;Temp;Humidity;BMP_temperature;BMP_pressure;BME280_temperature;BME280_humidity;BME280_pressure;Samples;Min_cycle;Max_cycle;Signal;HPM_P1;HPM_P2
2022/09/25 00:01:42;;;;;;;11.90;10.32;;;;;;;10.74;100.00;100620.75;5016496;28;20398;-77
2022/09/25 00:04:09;;;;;;;13.35;10.82;;;;;;;10.73;100.00;100617.25;5018713;28;20045;-76
2022/09/25 00:06:36;;;;;;;11.77;9.68;;;;;;;10.67;100.00;100612.09;5029299;28;20039;-75
2022/09/25 00:09:03;;;;;;;12.52;10.27;;;;;;;10.73;100.00;100611.97;5037902;28;20127;-77
2022/09/25 00:11:37;;;;;;;13.00;11.18;;;;;;;10.71;100.00;100613.78;5016520;28;20044;-76
2022/09/25 00:14:04;;;;;;;11.10;9.90;;;;;;;10.63;100.00;100616.59;5035354;28;20036;-78
2022/09/25 00:16:31;;;;;;;14.82;10.18;;;;;;;10.64;100.00;100607.75;5043000;28;20060;-77
2022/09/25 00:21:52;;;;;;;13.27;10.52;;;;;;;10.66;100.00;100618.28;5043428;28;20048;-78
2022/09/25 00:24:19;;;;;;;11.73;10.48;;;;;;;10.69;100.00;100616.47;5042457;28;20036;-77
2022/09/25 00:26:46;;;;;;;12.32;10.30;;;;;;;10.64;100.00;100613.03;5042472;28;20036;-76
2022/09/25 00:29:16;;;;;;;11.63;10.23;;;;;;;10.71;100.00;100609.38;5036537;28;20040;-76
2022/09/25 00:31:43;;;;;;;11.88;10.18;;;;;;;10.64;100.00;100618.31;5015825;28;20128;-77
2022/09/25 00:34:09;;;;;;;11.68;9.88;;;;;;;10.75;100.00;100610.16;5040617;28;20110;-76
2022/09/25 00:36:36;;;;;;;11.05;9.80;;;;;;;10.67;100.00;100612.97;5027304;28;20398;-76
2022/09/25 00:39:04;;;;;;;13.75;10.90;;;;;;;10.69;100.00;100610.31;5023155;28;20075;-76
2022/09/25 00:41:31;;;;;;;12.52;10.02;;;;;;;10.71;100.00;100609.38;5031592;28;20734;-77
2022/09/25 00:43:59;;;;;;;12.90;10.10;;;;;;;10.60;100.00;100611.38;5051631;28;20032;-76
2022/09/25 00:46:39;;;;;;;11.10;9.55;;;;;;;10.65;100.00;100605.97;5036155;28;20037;-76
2022/09/25 00:49:16;;;;;;;11.98;9.80;;;;;;;10.66;100.00;100613.88;5015293;28;20076;-77
2022/09/25 00:52:05;;;;;;;10.88;9.63;;;;;;;10.62;100.00;100606.06;5063788;28;20045;-76
2022/09/25 00:54:35;;;;;;;11.45;9.20;;;;;;;10.58;100.00;100607.00;5017510;28;20036;-76
2022/09/25 00:57:05;;;;;;;14.98;10.13;;;;;;;10.64;100.00;100602.47;5035471;28;20033;-76
2022/09/25 00:59:35;;;;;;;11.60;10.13;;;;;;;10.66;100.00;100599.78;5043909;28;20105;-76
2022/09/25 01:02:02;;;;;;;11.07;9.55;;;;;;;10.56;100.00;100606.19;5021548;28;20269;-77
2022/09/25 01:04:31;;;;;;;9.60;8.60;;;;;;;10.52;100.00;100597.47;5032803;28;20558;-76
2022/09/25 01:06:58;;;;;;;9.68;8.68;;;;;;;10.53;100.00;100593.03;5035726;28;20032;-76
2022/09/25 01:09:26;;;;;;;10.50;9.40;;;;;;;10.60;100.00;100594.66;5039064;28;20041;-76
2022/09/25 01:11:53;;;;;;;11.32;9.95;;;;;;;10.64;100.00;100591.91;5031335;28;20044;-77
2022/09/25 01:14:20;;;;;;;12.23;9.90;;;;;;;10.61;100.00;100585.84;5051358;28;20043;-76
2022/09/25 01:16:56;;;;;;;11.18;9.73;;;;;;;10.67;100.00;100590.97;5049459;28;20036;-76
2022/09/25 01:20:10;;;;;;;12.55;9.98;;;;;;;10.69;100.00;100583.88;5061868;28;20051;-76
2022/09/25 01:23:06;;;;;;;11.73;10.15;;;;;;;10.61;100.00;100589.34;4961756;28;20117;-75
2022/09/25 01:25:55;;;;;;;11.90;9.60;;;;;;;10.59;100.00;100595.53;4984288;28;20050;-77
2022/09/25 01:28:24;;;;;;;10.13;8.85;;;;;;;10.53;100.00;100588.63;5042659;28;20053;-76
2022/09/25 01:30:57;;;;;;;11.82;9.75;;;;;;;10.54;100.00;100587.72;5051635;28;20098;-76
2022/09/25 01:33:34;;;;;;;11.50;9.43;;;;;;;10.55;100.00;100584.19;5036689;28;20037;-76
2022/09/25 01:36:33;;;;;;;14.18;9.77;;;;;;;10.46;100.00;100594.94;5032980;28;20052;-76
2022/09/25 01:39:09;;;;;;;12.18;8.98;;;;;;;10.40;100.00;100593.28;5039617;28;20439;-76
2022/09/25 01:41:45;;;;;;;11.90;10.05;;;;;;;10.47;100.00;100586.13;5016280;28;20110;-76
2022/09/25 01:44:13;;;;;;;11.13;10.02;;;;;;;10.49;100.00;100580.78;5033284;28;20478;-77
2022/09/25 01:46:44;;;;;;;11.43;10.15;;;;;;;10.49;100.00;100583.44;5050991;28;20405;-76
2022/09/25 01:49:17;;;;;;;11.52;9.85;;;;;;;10.48;100.00;100586.97;5029044;28;20040;-77
2022/09/25 01:51:47;;;;;;;12.02;9.88;;;;;;;10.48;100.00;100579.06;5022170;28;20044;-76
2022/09/25 01:54:18;;;;;;;10.57;9.48;;;;;;;10.54;100.00;100586.84;5058014;28;20047;-76
2022/09/25 01:56:54;;;;;;;12.73;10.18;;;;;;;10.56;100.00;100583.28;5043520;28;20082;-76
2022/09/25 01:59:28;;;;;;;10.77;9.02;;;;;;;10.55;100.00;100583.31;5032318;28;20041;-75
2022/09/25 02:01:58;;;;;;;10.45;9.10;;;;;;;10.49;100.00;100586.94;5031719;28;20036;-75
2022/09/25 02:04:30;;;;;;;9.95;8.90;;;;;;;10.43;100.00;100581.81;5032243;28;20457;-75
2022/09/25 02:07:00;;;;;;;10.35;9.32;;;;;;;10.43;100.00;100581.81;5032711;28;20044;-76
2022/09/25 02:09:59;;;;;;;12.60;9.73;;;;;;;10.49;100.00;100578.16;5015654;28;20048;-76
2022/09/25 02:12:33;;;;;;;11.63;10.43;;;;;;;10.48;100.00;100585.22;5051929;28;20047;-75
2022/09/25 02:15:14;;;;;;;11.30;10.07;;;;;;;10.52;100.00;100571.06;5028494;28;20047;-76
2022/09/25 02:20:33;;;;;;;10.00;8.80;;;;;;;10.47;100.00;100579.97;5037670;28;20037;-75
2022/09/25 02:23:07;;;;;;;10.80;9.70;;;;;;;10.48;100.00;100574.66;5050667;28;20412;-76
2022/09/25 02:25:42;;;;;;;11.05;9.85;;;;;;;10.50;100.00;100571.97;5049852;28;20492;-75
2022/09/25 02:28:08;;;;;;;10.45;8.80;;;;;;;10.46;100.00;100575.59;5040926;28;20044;-76
2022/09/25 02:30:35;;;;;;;10.15;9.05;;;;;;;10.46;100.00;100568.53;5032274;28;20561;-76
2022/09/25 02:33:02;;;;;;;10.63;9.52;;;;;;;10.46;100.00;100571.16;5035538;28;20040;-76
2022/09/25 02:35:30;;;;;;;9.90;8.65;;;;;;;10.45;100.00;100565.94;5034271;28;20111;-76
2022/09/25 02:37:56;;;;;;;10.43;9.43;;;;;;;10.43;100.00;100563.31;5052729;28;20044;-75
2022/09/25 02:40:31;;;;;;;11.18;9.77;;;;;;;10.46;100.00;100563.25;5044919;28;20049;-76
2022/09/25 02:43:12;;;;;;;10.63;9.35;;;;;;;10.35;100.00;100565.25;5033629;28;20119;-75
2022/09/25 02:45:49;;;;;;;9.30;8.30;;;;;;;10.33;100.00;100559.13;5028184;28;20037;-75
2022/09/25 02:48:31;;;;;;;10.38;9.23;;;;;;;10.41;100.00;100562.47;5034161;28;20685;-76
2022/09/25 02:51:39;;;;;;;11.32;9.73;;;;;;;10.41;100.00;100562.47;5039206;28;20041;-76
2022/09/25 02:54:13;;;;;;;11.73;10.00;;;;;;;10.44;100.00;100567.69;4949978;28;20038;-76
2022/09/25 02:56:52;;;;;;;12.30;9.17;;;;;;;10.46;100.00;100567.66;4928191;28;20050;-76
2022/09/25 02:59:26;;;;;;;14.38;10.55;;;;;;;10.43;100.00;100563.31;5010508;28;20140;-76
2022/09/25 03:01:54;;;;;;;11.05;9.95;;;;;;;10.43;100.00;100564.19;5026284;28;20067;-75
2022/09/25 03:04:20;;;;;;;12.07;9.23;;;;;;;10.42;100.00;100565.09;5034178;28;20071;-76
2022/09/25 03:06:47;;;;;;;11.00;9.68;;;;;;;10.41;100.00;100562.47;5017377;28;20037;-75
2022/09/25 03:09:16;;;;;;;11.70;9.13;;;;;;;10.37;100.00;100566.09;5036444;28;20059;-75
2022/09/25 03:11:43;;;;;;;10.52;9.43;;;;;;;10.39;100.00;100561.63;5031355;28;20052;-76
2022/09/25 03:14:10;;;;;;;9.60;8.50;;;;;;;10.34;100.00;100561.75;5034216;28;20043;-76
2022/09/25 03:16:46;;;;;;;12.20;10.20;;;;;;;10.38;100.00;100557.25;5031753;28;20068;-75
2022/09/25 03:19:14;;;;;;;12.75;9.93;;;;;;;10.46;100.00;100550.03;5030301;28;20044;-76
2022/09/25 03:21:41;;;;;;;12.20;10.70;;;;;;;10.46;100.00;100546.53;5032864;28;20085;-76
2022/09/25 03:24:08;;;;;;;11.40;9.88;;;;;;;10.44;100.00;100546.56;5054415;28;20489;-75
2022/09/25 03:26:35;;;;;;;11.65;9.77;;;;;;;10.37;100.00;100551.13;5054424;28;20524;-75
2022/09/25 03:29:02;;;;;;;11.38;10.27;;;;;;;10.35;100.00;100541.50;5035538;28;20076;-76
2022/09/25 03:31:29;;;;;;;10.93;9.82;;;;;;;10.35;100.00;100539.72;5039356;28;20101;-76
2022/09/25 03:33:56;;;;;;;12.82;10.27;;;;;;;10.38;100.00;100536.13;5019627;28;20094;-76
2022/09/25 03:36:28;;;;;;;11.73;10.48;;;;;;;10.30;100.00;100544.22;5032867;28;20044;-78
2022/09/25 03:38:59;;;;;;;11.82;10.43;;;;;;;10.36;100.00;100546.72;5031792;28;20052;-75
2022/09/25 03:41:30;;;;;;;10.55;9.27;;;;;;;10.30;100.00;100548.63;5029966;28;20456;-76
2022/09/25 03:43:57;;;;;;;11.10;9.65;;;;;;;10.34;100.00;100553.81;5053231;28;20374;-76
2022/09/25 03:46:29;;;;;;;10.50;9.27;;;;;;;10.30;100.00;100554.78;5019250;28;20489;-75
2022/09/25 03:48:57;;;;;;;10.45;9.35;;;;;;;10.27;100.00;100549.56;5037885;28;20056;-76
2022/09/25 03:51:25;;;;;;;11.15;10.05;;;;;;;10.24;100.00;100543.47;5056508;28;20390;-76
2022/09/25 03:53:53;;;;;;;13.80;11.65;;;;;;;10.27;100.00;100548.72;5020520;28;20379;-76
2022/09/25 03:56:22;;;;;;;12.68;10.85;;;;;;;10.32;100.00;100537.13;5035771;28;20044;-76
2022/09/25 03:58:50;;;;;;;14.10;10.48;;;;;;;10.30;100.00;100540.72;5050499;28;20043;-76
2022/09/25 04:01:20;;;;;;;12.48;10.52;;;;;;;10.33;100.00;100538.00;5046527;28;20044;-76
2022/09/25 04:03:48;;;;;;;14.75;10.60;;;;;;;10.40;100.00;100535.19;5056435;28;20131;-75
2022/09/25 04:06:17;;;;;;;12.98;10.70;;;;;;;10.32;100.00;100533.63;5048806;28;20037;-75
2022/09/25 04:08:45;;;;;;;11.60;9.93;;;;;;;10.29;100.00;100533.69;5036513;28;20420;-75
2022/09/25 04:11:12;;;;;;;13.35;10.45;;;;;;;10.32;100.00;100536.25;5049988;28;20048;-76
2022/09/25 04:13:42;;;;;;;13.18;9.95;;;;;;;10.26;100.00;100542.56;5024172;28;20048;-76
2022/09/25 04:16:10;;;;;;;11.52;9.65;;;;;;;10.26;100.00;100536.41;5005140;28;20044;-75
2022/09/25 04:18:37;;;;;;;12.50;10.27;;;;;;;10.28;100.00;100538.09;5037826;28;20602;-76
2022/09/25 04:21:07;;;;;;;13.00;9.90;;;;;;;10.33;100.00;100532.72;5019182;28;20410;-75
2022/09/25 04:23:35;;;;;;;13.20;11.00;;;;;;;10.37;100.00;100532.63;5035700;28;20048;-76
2022/09/25 04:26:01;;;;;;;12.52;10.98;;;;;;;10.32;100.00;100526.56;5035662;28;20040;-76
2022/09/25 04:28:31;;;;;;;14.38;11.50;;;;;;;10.41;100.00;100530.78;5016231;28;20060;-76
2022/09/25 04:30:57;;;;;;;11.70;10.50;;;;;;;10.27;100.00;100532.88;5042066;28;20041;-76
2022/09/25 04:36:14;;;;;;;14.45;11.38;;;;;;;10.29;100.00;100531.06;5054295;28;20038;-76
2022/09/25 04:38:41;;;;;;;12.55;10.70;;;;;;;10.28;100.00;100531.97;5033844;28;20048;-75
2022/09/25 04:41:08;;;;;;;12.20;9.82;;;;;;;10.27;100.00;100539.00;5019725;28;20064;-76
2022/09/25 04:43:34;;;;;;;13.05;10.57;;;;;;;10.32;100.00;100531.84;5036408;28;20416;-76
2022/09/25 04:46:07;;;;;;;12.88;10.95;;;;;;;10.29;100.00;100525.78;5059607;28;20051;-76
2022/09/25 04:48:34;;;;;;;12.73;11.18;;;;;;;10.31;100.00;100523.97;5052138;28;20547;-76
2022/09/25 04:51:03;;;;;;;13.95;11.27;;;;;;;10.32;100.00;100528.34;5034270;28;20140;-76
2022/09/25 04:53:31;;;;;;;13.50;10.40;;;;;;;10.29;100.00;100521.34;5039651;28;20044;-76
2022/09/25 04:56:02;;;;;;;13.05;10.65;;;;;;;10.29;100.00;100528.41;5032111;28;20033;-75
2022/09/25 04:58:28;;;;;;;11.10;9.98;;;;;;;10.28;100.00;100519.63;5035710;28;20044;-76
2022/09/25 05:01:00;;;;;;;12.13;10.82;;;;;;;10.29;100.00;100526.63;5044352;28;20635;-76
2022/09/25 05:03:28;;;;;;;11.63;10.32;;;;;;;10.29;100.00;100525.78;5028438;28;20037;-76
2022/09/25 05:05:55;;;;;;;13.27;11.30;;;;;;;10.31;100.00;100523.97;5051649;28;20128;-76
2022/09/25 05:08:22;;;;;;;15.32;12.25;;;;;;;10.24;100.00;100523.22;5020053;28;20037;-76
2022/09/25 05:10:48;;;;;;;13.50;11.27;;;;;;;10.28;100.00;100527.53;5048041;28;20051;-75
2022/09/25 05:13:15;;;;;;;14.93;11.73;;;;;;;10.24;100.00;100527.63;5017291;28;20045;-76
2022/09/25 05:15:42;;;;;;;14.43;11.90;;;;;;;10.31;100.00;100530.09;5046643;28;20499;-76
2022/09/25 05:18:15;;;;;;;12.18;10.80;;;;;;;10.25;100.00;100524.09;5034630;28;21786;-76
2022/09/25 05:20:42;;;;;;;14.82;11.73;;;;;;;10.26;100.00;100526.72;5028252;28;20091;-77
2022/09/25 05:23:08;;;;;;;12.85;11.25;;;;;;;10.19;100.00;100532.13;5018630;28;20448;-77
2022/09/25 05:25:35;;;;;;;13.98;11.80;;;;;;;10.16;100.00;100536.53;5033551;28;20048;-75
2022/09/25 05:28:02;;;;;;;13.90;11.73;;;;;;;10.20;100.00;100531.22;5034528;28;20045;-76
2022/09/25 05:30:31;;;;;;;12.98;11.60;;;;;;;10.21;100.00;100535.59;5044568;28;20044;-76
2022/09/25 05:32:57;;;;;;;12.20;10.77;;;;;;;10.24;100.00;100533.78;5018493;28;20047;-75
2022/09/25 05:35:26;;;;;;;12.38;10.60;;;;;;;10.25;100.00;100532.00;5017504;28;20047;-76
2022/09/25 05:37:54;;;;;;;13.15;11.02;;;;;;;10.21;100.00;100527.66;5036076;28;20047;-75
2022/09/25 05:40:22;;;;;;;12.50;11.15;;;;;;;10.20;100.00;100526.81;5029523;28;20091;-75
2022/09/25 05:42:51;;;;;;;12.65;10.90;;;;;;;10.19;100.00;100521.56;5042626;28;20041;-76
2022/09/25 05:45:19;;;;;;;13.48;10.93;;;;;;;10.20;100.00;100528.56;5145841;22;20098;-81
2022/09/25 05:47:46;;;;;;;13.18;11.63;;;;;;;10.25;100.00;100526.72;5052392;28;20469;-81
2022/09/25 05:50:15;;;;;;;16.83;13.05;;;;;;;10.35;100.00;100526.50;5046327;28;20036;-81
2022/09/25 05:52:41;;;;;;;12.80;11.13;;;;;;;10.28;100.00;100524.03;5066663;28;20430;-81
2022/09/25 05:55:09;;;;;;;17.65;13.52;;;;;;;10.31;100.00;100527.47;5039256;28;20113;-81
2022/09/25 05:57:37;;;;;;;15.52;12.25;;;;;;;10.35;100.00;100523.00;5046913;28;20113;-82
2022/09/25 06:00:12;;;;;;;15.02;13.00;;;;;;;10.40;100.00;100518.47;5039479;28;20063;-82
2022/09/25 06:02:39;;;;;;;16.65;12.43;;;;;;;10.45;100.00;100516.63;5047889;28;20059;-82
2022/09/25 06:05:06;;;;;;;14.75;12.15;;;;;;;10.49;100.00;100527.97;5060560;28;20036;-82
2022/09/25 06:07:32;;;;;;;12.95;11.63;;;;;;;10.56;100.00;100527.78;5037541;28;20517;-82
2022/09/25 06:09:59;;;;;;;13.30;11.88;;;;;;;10.55;100.00;100527.84;5035623;28;20058;-82
2022/09/25 06:12:28;;;;;;;16.98;13.18;;;;;;;10.62;100.00;100524.16;5049519;28;20412;-82
2022/09/25 06:14:54;;;;;;;11.57;10.38;;;;;;;10.65;100.00;100524.94;5029752;28;20040;-82
2022/09/25 06:17:21;;;;;;;15.88;12.38;;;;;;;10.74;100.00;100523.00;5033246;28;20039;-82
2022/09/25 06:19:48;;;;;;;12.85;11.45;;;;;;;10.71;100.00;100526.59;5070696;28;20101;-81
2022/09/25 06:22:14;;;;;;;13.75;12.15;;;;;;;10.63;100.00;100524.13;5029544;28;20036;-82
2022/09/25 06:24:41;;;;;;;11.32;10.20;;;;;;;10.66;100.00;100518.75;5064989;28;20040;-85
2022/09/25 06:27:08;;;;;;;15.85;12.23;;;;;;;10.68;100.00;100522.25;5037391;28;20044;-83
2022/09/25 06:29:35;;;;;;;15.23;11.82;;;;;;;10.71;100.00;100527.44;5044559;28;20060;-84
2022/09/25 06:32:02;;;;;;;13.48;11.73;;;;;;;10.74;100.00;100526.50;5050275;28;20055;-82
2022/09/25 06:34:29;;;;;;;17.00;13.98;;;;;;;10.89;100.00;100525.28;5037133;28;20031;-85
2022/09/25 06:36:56;;;;;;;14.93;12.57;;;;;;;11.04;100.00;100524.06;5051048;28;20108;-83
2022/09/25 06:39:22;;;;;;;13.45;11.93;;;;;;;11.13;100.00;100532.63;5030480;28;20046;-80
2022/09/25 06:41:51;;;;;;;14.60;12.77;;;;;;;11.14;100.00;100525.56;5041363;28;20044;-80
2022/09/25 06:44:19;;;;;;;14.95;12.77;;;;;;;11.15;100.00;100529.94;5054456;28;20045;-81
2022/09/25 06:46:50;;;;;;;11.60;10.40;;;;;;;11.12;100.00;100520.31;5032453;28;20519;-82
2022/09/25 06:49:17;;;;;;;11.82;10.68;;;;;;;11.21;100.00;100522.72;5058467;28;20455;-80
2022/09/25 06:51:44;;;;;;;11.80;10.48;;;;;;;11.16;100.00;100524.59;5040437;28;20052;-81
2022/09/25 06:54:10;;;;;;;13.88;10.50;;;;;;;11.22;100.00;100527.09;5050652;28;20106;-81
2022/09/25 06:56:37;;;;;;;11.82;10.60;;;;;;;11.32;100.00;100526.88;5045424;28;20036;-81
2022/09/25 06:59:04;;;;;;;12.60;10.98;;;;;;;11.40;100.00;100525.75;5026484;28;20459;-82
2022/09/25 07:01:31;;;;;;;11.63;9.85;;;;;;;11.46;100.00;100527.38;5036368;28;20044;-82
2022/09/25 07:03:57;;;;;;;12.82;11.52;;;;;;;11.51;100.00;100528.13;5019989;28;20040;-81
2022/09/25 07:06:30;;;;;;;12.43;10.40;;;;;;;11.61;100.00;100519.03;5040415;28;20089;-81
2022/09/25 07:08:56;;;;;;;11.35;10.13;;;;;;;11.64;100.00;100528.66;5052609;28;20150;-82
2022/09/25 07:11:25;;;;;;;10.45;9.40;;;;;;;11.62;100.00;100527.84;5021991;28;20048;-81
2022/09/25 07:13:53;;;;;;;9.70;8.70;;;;;;;11.67;100.00;100529.44;5033412;28;20039;-81
2022/09/25 07:16:23;;;;;;;12.18;9.68;;;;;;;11.80;100.00;100533.53;5041198;28;20538;-80
2022/09/25 07:18:56;;;;;;;10.93;9.35;;;;;;;11.84;100.00;100532.53;5044330;28;20040;-81
2022/09/25 07:21:24;;;;;;;10.23;9.23;;;;;;;11.91;100.00;100540.31;5040036;28;20048;-82
2022/09/25 07:23:51;;;;;;;10.75;9.68;;;;;;;11.90;100.00;100533.28;5039821;28;20051;-81
2022/09/25 07:26:21;;;;;;;10.55;8.95;;;;;;;11.97;100.00;100537.50;5034301;28;20043;-80
2022/09/25 07:28:56;;;;;;;10.70;9.70;;;;;;;12.01;100.00;100539.13;5045731;28;20070;-79
2022/09/25 07:31:28;;;;;;;10.90;9.80;;;;;;;12.02;100.00;100535.56;5065363;28;20500;-79
2022/09/25 07:33:57;;;;;;;9.50;8.52;;;;;;;12.01;100.00;100536.47;5040362;28;20051;-79
2022/09/25 07:36:24;;;;;;;10.73;9.73;;;;;;;12.02;100.00;100540.88;5056124;28;20110;-80
2022/09/25 07:38:51;;;;;;;9.73;8.73;;;;;;;11.98;100.00;100533.94;5043816;28;20036;-80
2022/09/25 07:41:19;;;;;;;13.10;9.45;;;;;;;11.98;100.00;100537.44;5043806;28;20124;-82
2022/09/25 07:43:46;;;;;;;9.65;8.65;;;;;;;12.06;100.00;100532.81;5057088;28;20063;-81
2022/09/25 07:46:13;;;;;;;9.80;8.80;;;;;;;12.14;100.00;100544.97;5052972;28;20078;-81
2022/09/25 07:48:39;;;;;;;9.98;8.98;;;;;;;12.25;100.00;100538.44;5047967;28;20047;-82
2022/09/25 07:51:08;;;;;;;9.23;8.25;;;;;;;12.27;100.00;100539.25;5045809;28;20040;-81
2022/09/25 07:53:36;;;;;;;9.48;8.27;;;;;;;12.29;100.00;100536.56;5052220;28;20050;-81
2022/09/25 07:56:03;;;;;;;9.35;8.40;;;;;;;12.34;100.00;100534.63;5049340;28;20060;-81
2022/09/25 07:58:34;;;;;;;9.70;8.70;;;;;;;12.47;100.00;100541.31;5029149;28;20615;-82
2022/09/25 08:01:03;;;;;;;10.02;7.85;;;;;;;12.64;100.00;100535.50;5053472;28;20036;-81
2022/09/25 08:03:30;;;;;;;9.40;8.43;;;;;;;12.80;100.00;100531.47;5035720;28;20503;-82
2022/09/25 08:06:05;;;;;;;8.13;7.43;;;;;;;13.07;100.00;100531.50;5070010;28;20070;-83
2022/09/25 08:08:33;;;;;;;7.85;7.15;;;;;;;13.27;100.00;100526.41;5040414;28;20044;-82
2022/09/25 08:11:01;;;;;;;9.68;7.15;;;;;;;13.38;100.00;100521.63;5039828;28;20067;-82
2022/09/25 08:13:29;;;;;;;7.85;7.13;;;;;;;13.43;100.00;100521.44;5037215;28;20045;-83
2022/09/25 08:15:56;;;;;;;9.95;7.82;;;;;;;13.57;100.00;100523.63;5042411;28;20045;-82
2022/09/25 08:18:22;;;;;;;7.55;6.85;;;;;;;13.62;100.00;100522.56;5022037;28;20048;-82
2022/09/25 08:20:49;;;;;;;6.63;6.00;;;;;;;13.66;100.00;100523.31;5042026;28;20051;-82
2022/09/25 08:23:16;;;;;;;8.05;7.22;;;;;;;13.77;100.00;100521.13;5039940;28;20049;-82
2022/09/25 08:25:47;;;;;;;7.18;6.15;;;;;;;13.85;100.00;100516.41;5060282;28;20085;-82
2022/09/25 08:28:13;;;;;;;7.28;6.57;;;;;;;14.00;100.00;100512.34;5045210;28;20048;-82
2022/09/25 08:30:42;;;;;;;8.40;6.75;;;;;;;14.09;100.00;100507.56;5043241;28;20040;-82
2022/09/25 08:33:11;;;;;;;8.48;6.85;;;;;;;13.92;100.00;100506.44;5045191;28;20080;-84
2022/09/25 08:35:41;;;;;;;7.40;6.32;;;;;;;14.09;100.00;100507.56;5026918;28;20047;-82
2022/09/25 08:38:11;;;;;;;6.53;5.85;;;;;;;14.19;100.00;100508.06;5057746;28;20416;-84
2022/09/25 08:40:43;;;;;;;7.63;6.72;;;;;;;14.34;100.00;100503.97;5038505;28;20047;-86
2022/09/25 08:43:20;;;;;;;6.03;5.43;;;;;;;14.41;100.00;100502.81;5041300;28;20086;-86
2022/09/25 08:49:04;;;;;;;6.60;5.60;;;;;;;14.39;100.00;100496.69;5058544;28;20070;-86
2022/09/25 08:51:43;;;;;;;8.15;5.60;;;;;;;14.45;100.00;100501.78;5044002;28;20048;-82
2022/09/25 08:54:18;;;;;;;6.32;5.72;;;;;;;14.50;100.00;100497.16;5057613;28;20044;-83
2022/09/25 08:56:49;;;;;;;6.43;5.72;;;;;;;14.61;100.00;100500.25;5041407;28;20105;-81
2022/09/25 08:59:32;;;;;;;10.02;5.78;;;;;;;14.63;100.00;100498.44;5040456;28;20050;-81
2022/09/25 09:02:01;;;;;;;6.95;6.25;;;;;;;14.76;100.00;100500.59;5039034;28;20456;-81
2022/09/25 09:04:33;;;;;;;8.23;6.03;;;;;;;14.55;98.10;100499.66;5056783;28;20037;-81
2022/09/25 09:07:39;;;;;;;7.10;5.45;;;;;;;14.78;100.00;100507.56;5038606;28;20421;-81
2022/09/25 09:10:21;;;;;;;7.68;6.60;;;;;;;15.00;100.00;100509.38;5040232;28;20102;-81
2022/09/25 09:12:56;;;;;;;10.77;6.78;;;;;;;14.95;96.25;100509.53;5056170;28;20633;-81
2022/09/25 09:15:39;;;;;;;7.30;5.85;;;;;;;14.93;97.38;100504.28;5059192;28;20052;-81
2022/09/25 09:18:26;;;;;;;7.10;6.00;;;;;;;15.19;100.00;100497.00;5036094;28;20035;-82
2022/09/25 09:20:55;;;;;;;6.72;6.03;;;;;;;15.51;91.92;100492.97;5040133;28;20708;-81
2022/09/25 09:23:57;;;;;;;6.53;5.93;;;;;;;15.84;89.82;100490.66;5040818;28;20516;-81
2022/09/25 09:26:56;;;;;;;6.97;5.95;;;;;;;16.07;85.06;100481.63;5018443;28;20503;-81
2022/09/25 09:29:28;;;;;;;6.55;5.95;;;;;;;16.29;88.16;100479.69;5041117;28;20094;-82
2022/09/25 09:32:32;;;;;;;6.78;5.50;;;;;;;16.33;85.44;100486.63;5053726;28;20040;-82
2022/09/25 09:35:06;;;;;;;6.43;5.72;;;;;;;15.92;84.66;100483.19;5067183;28;20040;-81
2022/09/25 09:37:49;;;;;;;6.15;5.45;;;;;;;15.67;86.24;100478.09;5069689;28;20074;-82
2022/09/25 09:41:00;;;;;;;5.78;5.13;;;;;;;16.38;83.65;100477.53;5042071;28;20036;-81
2022/09/25 09:43:45;;;;;;;7.30;6.10;;;;;;;16.59;83.58;100481.84;5073516;28;20063;-82
2022/09/25 09:46:20;;;;;;;5.43;4.82;;;;;;;16.86;81.92;100467.19;5045261;28;20035;-81
2022/09/25 09:49:17;;;;;;;6.90;5.97;;;;;;;17.07;80.68;100470.59;5034562;28;20044;-82
2022/09/25 09:51:49;;;;;;;7.30;5.72;;;;;;;17.20;76.12;100464.63;5051020;28;20043;-81
2022/09/25 09:54:23;;;;;;;6.20;5.60;;;;;;;17.24;76.26;100461.75;5049484;28;20516;-81
2022/09/25 09:56:51;;;;;;;7.53;4.88;;;;;;;17.45;81.42;100473.97;5063897;28;20037;-80
2022/09/25 09:59:28;;;;;;;6.20;5.20;;;;;;;17.63;77.64;100466.81;5066282;28;20040;-81
2022/09/25 10:02:17;;;;;;;5.95;5.35;;;;;;;17.80;71.87;100465.94;5039176;28;20048;-80
2022/09/25 10:04:44;;;;;;;7.15;5.45;;;;;;;17.75;69.90;100467.16;5055633;28;20050;-81
2022/09/25 10:07:15;;;;;;;6.40;5.75;;;;;;;17.79;70.73;100469.56;5041711;28;20137;-81
2022/09/25 10:09:42;;;;;;;7.15;5.50;;;;;;;17.76;70.63;100460.84;5065507;28;20052;-81
2022/09/25 10:12:32;;;;;;;7.00;6.10;;;;;;;17.57;69.48;100463.59;5046550;28;20173;-81
2022/09/25 10:15:03;;;;;;;5.78;5.07;;;;;;;17.54;75.11;100461.94;5088537;28;20066;-80
2022/09/25 10:17:30;;;;;;;6.05;5.45;;;;;;;17.53;75.00;100459.38;5060402;28;20504;-82
2022/09/25 10:19:59;;;;;;;5.82;5.00;;;;;;;17.53;77.01;100456.69;5087088;28;20040;-82
2022/09/25 10:22:29;;;;;;;7.15;5.80;;;;;;;17.64;74.10;100449.81;5044036;28;20051;-82
2022/09/25 10:25:00;;;;;;;7.60;5.65;;;;;;;17.57;70.64;100447.56;5082026;28;20039;-82
2022/09/25 10:27:35;;;;;;;5.85;5.18;;;;;;;17.44;73.16;100452.69;5066328;28;20098;-81
2022/09/25 10:30:08;;;;;;;6.53;5.93;;;;;;;17.80;77.61;100436.53;5051606;28;20036;-82
2022/09/25 10:32:51;;;;;;;5.90;5.30;;;;;;;18.01;73.10;100437.22;5080122;28;20097;-81
2022/09/25 10:35:45;;;;;;;6.13;5.53;;;;;;;18.21;70.86;100439.63;5059660;28;20040;-83
2022/09/25 10:38:28;;;;;;;5.90;5.28;;;;;;;18.27;69.72;100441.09;5066798;28;20040;-84
2022/09/25 10:41:11;;;;;;;6.47;5.45;;;;;;;18.28;68.05;100443.69;5057138;28;20043;-83
2022/09/25 10:43:55;;;;;;;6.13;5.53;;;;;;;18.21;71.55;100438.78;5067966;28;20038;-83
2022/09/25 10:52:12;;;;;;;5.47;4.97;;;;;;;18.10;73.58;100442.03;5070631;28;20040;-83
2022/09/25 10:54:39;;;;;;;5.72;5.22;;;;;;;17.93;69.56;100432.28;5058487;28;20106;-82
2022/09/25 10:57:20;;;;;;;7.07;5.40;;;;;;;18.21;70.51;100434.28;5060868;28;20094;-84
2022/09/25 10:59:48;;;;;;;6.60;5.90;;;;;;;18.31;65.46;100428.41;5068424;28;20040;-82
2022/09/25 11:02:38;;;;;;;5.75;5.18;;;;;;;18.33;69.16;100430.09;5060058;28;20040;-82
2022/09/25 11:05:20;;;;;;;5.53;4.90;;;;;;;18.61;69.06;100431.19;5066840;28;20033;-82
2022/09/25 11:07:56;;;;;;;7.80;5.57;;;;;;;18.20;67.61;100427.22;5035521;28;20086;-81
2022/09/25 11:10:27;;;;;;;6.28;5.65;;;;;;;18.45;68.49;100425.84;5044442;28;20048;-83
2022/09/25 11:12:55;;;;;;;5.95;5.45;;;;;;;18.50;70.46;100418.44;5074445;28;20049;-82
2022/09/25 11:15:25;;;;;;;5.68;5.18;;;;;;;18.63;69.40;100430.13;5054015;28;20040;-81
2022/09/25 11:17:55;;;;;;;5.95;5.35;;;;;;;18.42;64.77;100426.88;5056024;28;20138;-81
2022/09/25 11:20:30;;;;;;;5.80;5.20;;;;;;;18.27;65.24;100420.56;5066674;28;20051;-81
2022/09/25 11:23:13;;;;;;;6.70;5.28;;;;;;;18.26;68.08;100418.00;5094212;28;20032;-82
2022/09/25 11:26:05;;;;;;;6.22;5.43;;;;;;;18.19;69.51;100408.59;5078188;28;20111;-83
2022/09/25 11:28:51;;;;;;;7.07;5.88;;;;;;;18.22;65.87;100411.06;5061922;28;20074;-81
2022/09/25 11:31:34;;;;;;;5.82;5.32;;;;;;;18.25;66.53;100416.28;5039901;28;20555;-81
2022/09/25 11:34:01;;;;;;;5.70;5.10;;;;;;;18.05;67.55;100411.16;5047052;28;20039;-82
2022/09/25 11:36:31;;;;;;;5.90;5.30;;;;;;;18.01;71.60;100410.47;5079574;28;20036;-80
2022/09/25 11:42:17;;;;;;;6.47;5.30;;;;;;;18.34;71.85;100410.41;4989948;28;20631;-81
2022/09/25 11:44:56;;;;;;;6.95;5.90;;;;;;;17.98;65.88;100406.13;5041337;28;20400;-82
2022/09/25 11:47:35;;;;;;;5.93;5.32;;;;;;;18.25;68.15;100409.13;5063713;28;20044;-82
2022/09/25 11:50:03;;;;;;;6.53;5.93;;;;;;;18.38;68.58;100392.34;5057152;28;20037;-81
2022/09/25 11:52:58;;;;;;;6.85;6.07;;;;;;;18.65;66.09;100395.25;5048482;28;20448;-83
2022/09/25 11:55:46;;;;;;;7.80;5.95;;;;;;;18.62;64.24;100396.31;5080702;28;20044;-82